Time;durP1;ratioP1;P1;durP2;ratioP2;P2;SDS_P1;SDS_P2;PMS_P1;PMS_P2;Temp;Humidity;BMP_temperature;BMP_pressure;BME280_temperature;BME280_humidity;BME280_pressure;Samples;Min_cycle;Max_cycle;Signal;HPM_P1;HPM_P2
2021/12/12 00:00:54;;;;;;;30.57;18.23;;;0.30;99.90;;;;;;5028906;28;20208;-71
2021/12/12 00:03:34;;;;;;;27.47;17.37;;;0.20;99.90;;;;;;5028802;28;20671;-71
2021/12/12 00:06:09;;;;;;;29.10;18.20;;;0.20;99.90;;;;;;5028066;28;20648;-71
2021/12/12 00:08:36;;;;;;;30.33;17.50;;;0.20;99.90;;;;;;5028726;28;20231;-71
2021/12/12 00:11:16;;;;;;;27.33;17.83;;;0.20;99.90;;;;;;5028803;28;20263;-71
2021/12/12 00:13:46;;;;;;;29.20;17.83;;;0.30;99.90;;;;;;5028879;28;20208;-71
2021/12/12 00:16:13;;;;;;;28.40;18.13;;;0.30;99.90;;;;;;5028773;28;20201;-71
2021/12/12 00:18:43;;;;;;;25.53;17.17;;;0.30;99.90;;;;;;5028788;28;20216;-71
2021/12/12 00:21:13;;;;;;;26.77;17.63;;;0.30;99.90;;;;;;5028617;28;20255;-71
2021/12/12 00:23:40;;;;;;;25.27;17.57;;;0.20;99.90;;;;;;5028519;28;20250;-71
2021/12/12 00:26:08;;;;;;;27.70;17.20;;;0.20;99.90;;;;;;5028821;28;20741;-71
2021/12/12 00:28:36;;;;;;;31.33;18.13;;;0.20;99.90;;;;;;5028500;28;20243;-71
2021/12/12 00:31:09;;;;;;;27.47;18.33;;;0.20;99.90;;;;;;5028586;28;20231;-71
2021/12/12 00:33:36;;;;;;;26.30;17.47;;;0.20;99.90;;;;;;5028481;28;20208;-71
2021/12/12 00:36:06;;;;;;;25.50;17.40;;;0.20;99.90;;;;;;5028562;28;20209;-71
2021/12/12 00:38:35;;;;;;;28.83;17.87;;;0.20;99.90;;;;;;5028131;28;20886;-71
2021/12/12 00:41:08;;;;;;;25.77;17.70;;;0.10;99.90;;;;;;5028450;28;20204;-71
2021/12/12 00:43:38;;;;;;;25.63;16.47;;;0.10;99.90;;;;;;5028309;28;20196;-71
2021/12/12 00:46:10;;;;;;;26.10;17.00;;;0.00;99.90;;;;;;5028097;28;20658;-71
2021/12/12 00:48:39;;;;;;;22.27;16.07;;;0.00;99.90;;;;;;5028296;28;20212;-71
2021/12/12 00:51:09;;;;;;;24.43;16.90;;;0.00;99.90;;;;;;5028392;28;20207;-71
2021/12/12 00:53:39;;;;;;;23.73;16.37;;;0.10;99.90;;;;;;5027560;28;20248;-70
2021/12/12 00:56:06;;;;;;;28.80;17.40;;;0.00;99.90;;;;;;5027996;28;20553;-71
2021/12/12 00:58:33;;;;;;;23.57;15.83;;;0.10;99.90;;;;;;5028170;28;20610;-71
2021/12/12 01:01:05;;;;;;;25.10;17.23;;;0.10;99.90;;;;;;5028263;28;20306;-71
2021/12/12 01:03:35;;;;;;;24.33;15.83;;;0.10;99.90;;;;;;5028119;28;20263;-70
2021/12/12 01:06:05;;;;;;;25.07;16.80;;;0.10;99.90;;;;;;5028087;28;20193;-68
2021/12/12 01:08:34;;;;;;;25.13;15.97;;;0.00;99.90;;;;;;5027722;28;20254;-69
2021/12/12 01:11:06;;;;;;;23.27;16.17;;;0.00;99.90;;;;;;5028360;28;20277;-69
2021/12/12 01:13:33;;;;;;;25.27;16.97;;;0.00;99.90;;;;;;5027858;28;20605;-69
2021/12/12 01:16:06;;;;;;;22.13;15.73;;;0.00;99.90;;;;;;5028077;28;20216;-69
2021/12/12 01:18:36;;;;;;;22.70;15.93;;;0.00;99.90;;;;;;5032298;28;20192;-70
2021/12/12 01:21:12;;;;;;;20.27;15.20;;;0.10;99.90;;;;;;5032187;28;20207;-69
2021/12/12 01:23:42;;;;;;;23.90;15.40;;;0.00;99.90;;;;;;5031724;28;20200;-69
2021/12/12 01:26:12;;;;;;;25.27;16.17;;;0.00;99.90;;;;;;5032147;28;20212;-69
2021/12/12 01:28:42;;;;;;;21.40;15.93;;;0.00;99.90;;;;;;5031823;28;20212;-69
2021/12/12 01:31:14;;;;;;;20.40;14.80;;;0.10;99.90;;;;;;5031838;28;20250;-69
2021/12/12 01:33:41;;;;;;;23.20;15.13;;;-0.10;99.90;;;;;;5031606;28;20243;-69
2021/12/12 01:36:12;;;;;;;24.60;15.80;;;-0.10;99.90;;;;;;5031786;28;20640;-69
2021/12/12 01:38:52;;;;;;;21.13;15.40;;;-0.10;99.90;;;;;;5031583;28;20204;-69
2021/12/12 01:41:23;;;;;;;22.40;16.23;;;0.00;99.90;;;;;;5031752;28;20306;-70
2021/12/12 01:43:51;;;;;;;20.57;15.80;;;0.00;99.90;;;;;;5031561;28;20238;-69
2021/12/12 01:46:21;;;;;;;21.87;15.33;;;0.00;99.90;;;;;;5031799;28;20204;-69
2021/12/12 01:48:53;;;;;;;20.43;15.00;;;0.00;99.90;;;;;;5031509;28;20212;-69
2021/12/12 01:51:21;;;;;;;19.50;15.53;;;0.10;99.90;;;;;;5031714;28;20536;-69
2021/12/12 01:53:51;;;;;;;23.83;15.13;;;0.10;99.90;;;;;;5030967;28;20309;-69
2021/12/12 01:56:22;;;;;;;23.47;15.23;;;0.10;99.90;;;;;;5031620;28;20274;-70
2021/12/12 01:58:54;;;;;;;21.23;15.03;;;0.10;99.90;;;;;;5031684;28;20201;-70
2021/12/12 02:01:24;;;;;;;21.27;15.50;;;0.20;99.90;;;;;;5031409;28;20204;-69
2021/12/12 02:04:02;;;;;;;22.07;14.33;;;0.20;99.90;;;;;;5031245;28;20213;-69
2021/12/12 02:06:29;;;;;;;20.50;14.80;;;0.10;99.90;;;;;;5031273;28;20201;-69
2021/12/12 02:08:57;;;;;;;19.57;14.43;;;0.10;99.90;;;;;;5030698;28;20695;-69
2021/12/12 02:11:31;;;;;;;21.57;15.23;;;0.10;99.90;;;;;;5031229;28;20209;-68
2021/12/12 02:14:07;;;;;;;21.97;15.00;;;0.10;99.90;;;;;;5027117;28;20248;-70
2021/12/12 02:16:38;;;;;;;21.03;14.93;;;0.20;99.90;;;;;;5011141;28;20196;-69
2021/12/12 02:19:06;;;;;;;19.00;14.10;;;0.20;99.90;;;;;;5011372;28;20260;-69
2021/12/12 02:21:43;;;;;;;21.13;15.53;;;0.20;99.90;;;;;;5010984;28;20263;-69
2021/12/12 02:35:06;;;;;;;20.63;14.53;;;0.20;99.90;;;;;;5011159;28;20300;-70
2021/12/12 02:35:54;;;;;;;22.00;14.47;;;0.00;99.90;;;;;;4997663;28;20212;-69
2021/12/12 02:38:23;;;;;;;21.40;14.60;;;0.00;99.90;;;;;;5010945;28;20927;-69
2021/12/12 02:40:55;;;;;;;20.57;14.13;;;0.00;99.90;;;;;;5010538;28;20656;-71
2021/12/12 02:43:25;;;;;;;19.13;13.77;;;-0.10;99.90;;;;;;5011025;28;20228;-69
2021/12/12 02:45:55;;;;;;;19.30;14.27;;;0.00;99.90;;;;;;5010673;28;20226;-70
2021/12/12 02:48:27;;;;;;;18.93;13.97;;;0.00;99.90;;;;;;5011065;28;20201;-70
2021/12/12 02:50:55;;;;;;;18.10;14.00;;;0.00;99.90;;;;;;5010477;28;20203;-69
2021/12/12 02:53:27;;;;;;;19.20;13.87;;;0.00;99.90;;;;;;5010306;28;20253;-70
2021/12/12 02:55:58;;;;;;;20.57;13.57;;;0.00;99.90;;;;;;5010521;28;20205;-69
2021/12/12 02:58:26;;;;;;;18.83;14.33;;;0.00;99.90;;;;;;5010936;28;20205;-69
2021/12/12 03:01:01;;;;;;;16.63;13.23;;;0.00;99.90;;;;;;5010442;28;20209;-70
2021/12/12 03:03:29;;;;;;;17.60;13.17;;;0.10;99.90;;;;;;5010332;28;20640;-70
2021/12/12 03:05:56;;;;;;;16.43;13.20;;;0.00;99.90;;;;;;5010407;28;20237;-69
2021/12/12 03:08:23;;;;;;;15.50;13.23;;;0.00;99.90;;;;;;5010326;28;20283;-69
2021/12/12 03:10:53;;;;;;;16.47;12.77;;;0.00;99.90;;;;;;5010319;28;20617;-69
2021/12/12 03:13:23;;;;;;;16.20;12.53;;;0.00;99.90;;;;;;5010353;28;20283;-70
2021/12/12 03:15:52;;;;;;;15.87;13.13;;;0.00;99.90;;;;;;5010035;28;20201;-69
2021/12/12 03:18:23;;;;;;;19.53;13.07;;;-0.10;99.90;;;;;;5010461;28;20210;-69
2021/12/12 03:20:53;;;;;;;19.83;14.03;;;-0.10;99.90;;;;;;5010126;28;20197;-69
2021/12/12 03:23:22;;;;;;;16.97;13.30;;;-0.10;99.90;;;;;;5010152;28;20205;-69
2021/12/12 03:25:52;;;;;;;15.53;12.37;;;-0.10;99.90;;;;;;5010030;28;20606;-69
2021/12/12 03:28:25;;;;;;;19.37;13.70;;;0.00;99.90;;;;;;5009765;28;20671;-69
2021/12/12 03:30:54;;;;;;;15.03;13.23;;;-0.10;99.90;;;;;;5009876;28;20237;-70
2021/12/12 03:33:21;;;;;;;16.87;12.87;;;-0.10;99.90;;;;;;5009819;28;20233;-69
2021/12/12 03:35:49;;;;;;;18.27;13.30;;;0.00;99.90;;;;;;5009699;28;20262;-69
2021/12/12 03:38:16;;;;;;;16.90;13.00;;;0.00;99.90;;;;;;5009408;28;20737;-69
2021/12/12 03:40:45;;;;;;;17.60;13.37;;;0.00;99.90;;;;;;5009266;28;20691;-70
2021/12/12 03:43:12;;;;;;;17.80;12.90;;;0.10;99.90;;;;;;5009824;28;20215;-69
2021/12/12 03:45:42;;;;;;;18.10;12.90;;;0.10;99.90;;;;;;5009148;28;20323;-69
2021/12/12 03:48:13;;;;;;;16.87;12.40;;;0.00;99.90;;;;;;5009574;28;20212;-69
2021/12/12 03:50:42;;;;;;;18.47;13.23;;;0.00;99.90;;;;;;5009523;28;20244;-69
2021/12/12 03:53:10;;;;;;;19.30;13.60;;;0.00;99.90;;;;;;5009089;28;20248;-69
2021/12/12 03:55:37;;;;;;;17.10;13.13;;;-0.10;99.90;;;;;;5009305;28;20549;-69
2021/12/12 03:58:07;;;;;;;17.27;12.93;;;0.00;99.90;;;;;;5009502;28;20209;-69
2021/12/12 04:00:38;;;;;;;17.67;13.23;;;0.00;99.90;;;;;;5009478;28;20687;-70
2021/12/12 04:03:07;;;;;;;17.20;12.70;;;0.00;99.90;;;;;;5009262;28;20713;-70
2021/12/12 04:05:34;;;;;;;17.90;12.83;;;-0.10;99.90;;;;;;5009165;28;20633;-69
2021/12/12 04:08:01;;;;;;;18.30;13.10;;;-0.10;99.90;;;;;;5009407;28;20236;-70
2021/12/12 04:10:27;;;;;;;18.80;13.40;;;-0.10;99.90;;;;;;5009421;28;20212;-70
2021/12/12 04:12:55;;;;;;;19.47;13.33;;;-0.10;99.90;;;;;;5009345;28;20208;-69
2021/12/12 04:15:24;;;;;;;16.50;12.77;;;-0.10;99.90;;;;;;5009155;28;20624;-69
2021/12/12 04:17:52;;;;;;;17.27;12.97;;;-0.10;99.90;;;;;;5009023;28;20266;-69
2021/12/12 04:20:22;;;;;;;19.87;13.07;;;-0.20;99.90;;;;;;5009060;28;20270;-70
2021/12/12 04:22:49;;;;;;;19.13;13.80;;;-0.10;99.90;;;;;;5008881;28;20266;-69
2021/12/12 04:25:15;;;;;;;18.70;13.50;;;-0.10;99.90;;;;;;5008734;28;20715;-69
2021/12/12 04:27:43;;;;;;;17.03;13.30;;;-0.10;99.90;;;;;;5008929;28;20212;-69
2021/12/12 04:30:13;;;;;;;17.10;12.83;;;-0.20;99.90;;;;;;5008919;28;20224;-69
2021/12/12 04:32:41;;;;;;;18.57;13.83;;;-0.20;99.90;;;;;;5009077;28;20258;-69
2021/12/12 04:35:11;;;;;;;17.53;13.67;;;-0.10;99.90;;;;;;5009127;28;20212;-70
2021/12/12 04:37:39;;;;;;;22.50;13.53;;;-0.10;99.90;;;;;;5008631;28;20249;-69
2021/12/12 04:40:08;;;;;;;18.00;12.83;;;0.00;99.90;;;;;;5008764;28;20208;-70
2021/12/12 04:42:37;;;;;;;19.40;13.47;;;-0.10;99.90;;;;;;5008483;28;20221;-70
2021/12/12 04:45:16;;;;;;;17.33;13.10;;;0.00;99.90;;;;;;5008460;28;20286;-69
2021/12/12 04:50:42;;;;;;;15.33;12.03;;;0.00;99.90;;;;;;5008194;28;20196;-69
2021/12/12 04:53:16;;;;;;;18.00;13.33;;;0.00;99.90;;;;;;5008003;28;20274;-70
2021/12/12 04:55:52;;;;;;;15.20;11.83;;;0.10;99.90;;;;;;5008087;28;20707;-70
2021/12/12 04:58:27;;;;;;;17.33;13.17;;;0.10;99.90;;;;;;5008375;28;20640;-69
2021/12/12 05:00:58;;;;;;;18.47;13.07;;;0.20;99.90;;;;;;5008564;28;20546;-69
2021/12/12 05:03:32;;;;;;;15.83;12.50;;;0.20;99.90;;;;;;5008601;28;20190;-69
2021/12/12 05:06:05;;;;;;;15.90;12.13;;;0.30;99.90;;;;;;5008494;28;20221;-69
2021/12/12 05:08:38;;;;;;;18.63;12.97;;;0.30;99.90;;;;;;5008305;28;20642;-70
2021/12/12 05:11:08;;;;;;;21.03;13.20;;;0.30;99.90;;;;;;5008469;28;20236;-70
2021/12/12 05:13:38;;;;;;;15.70;11.60;;;0.30;99.90;;;;;;5008160;28;20709;-70
2021/12/12 05:16:10;;;;;;;19.03;12.70;;;0.30;99.90;;;;;;5008409;28;20190;-70
2021/12/12 05:18:47;;;;;;;17.77;12.97;;;0.30;99.90;;;;;;5008011;28;20197;-70
2021/12/12 05:21:15;;;;;;;19.57;12.83;;;0.40;99.90;;;;;;5008375;28;20197;-71
2021/12/12 05:23:48;;;;;;;18.40;12.57;;;0.40;99.90;;;;;;5008000;28;20210;-70
2021/12/12 05:26:19;;;;;;;18.00;12.70;;;0.40;99.90;;;;;;5008191;28;20225;-70
2021/12/12 05:28:50;;;;;;;18.03;12.50;;;0.40;99.90;;;;;;5008183;28;20595;-70
2021/12/12 05:31:20;;;;;;;15.90;12.40;;;0.40;99.90;;;;;;5008518;28;20225;-70
2021/12/12 05:33:50;;;;;;;16.80;12.47;;;0.40;99.90;;;;;;5008117;28;20226;-70
2021/12/12 05:36:18;;;;;;;18.67;12.27;;;0.40;99.90;;;;;;5008229;28;20209;-70
2021/12/12 05:38:47;;;;;;;20.00;13.73;;;0.40;99.90;;;;;;5007960;28;20209;-70
2021/12/12 05:41:17;;;;;;;14.63;12.00;;;0.40;99.90;;;;;;5008096;28;20214;-70
2021/12/12 05:43:44;;;;;;;18.63;13.00;;;0.40;99.90;;;;;;5007878;28;20206;-70
2021/12/12 05:46:15;;;;;;;18.90;12.60;;;0.40;99.90;;;;;;5007354;28;20287;-70
2021/12/12 05:48:42;;;;;;;16.27;11.70;;;0.40;99.90;;;;;;5008043;28;20210;-70
2021/12/12 05:51:09;;;;;;;16.70;13.33;;;0.40;99.90;;;;;;5008177;28;20241;-70
2021/12/12 05:53:36;;;;;;;18.03;13.17;;;0.40;99.90;;;;;;5007678;28;20236;-70
2021/12/12 05:56:07;;;;;;;16.33;12.77;;;0.40;99.90;;;;;;5008086;28;20213;-70
2021/12/12 05:58:35;;;;;;;15.93;12.37;;;0.40;99.90;;;;;;5007771;28;20201;-70
2021/12/12 06:01:08;;;;;;;18.47;12.97;;;0.40;99.90;;;;;;5007507;28;20720;-70
2021/12/12 06:03:39;;;;;;;16.23;12.20;;;0.40;99.90;;;;;;5008861;28;20198;-70
2021/12/12 06:06:11;;;;;;;19.07;12.87;;;0.40;99.90;;;;;;5011551;28;20279;-70
2021/12/12 06:08:40;;;;;;;18.40;12.63;;;0.30;99.90;;;;;;5011209;28;20260;-70
2021/12/12 06:11:09;;;;;;;19.70;13.23;;;0.30;99.90;;;;;;5011803;28;20209;-70
2021/12/12 06:13:37;;;;;;;18.40;13.27;;;0.30;99.90;;;;;;5011281;28;20209;-70
2021/12/12 06:16:08;;;;;;;17.00;12.87;;;0.30;99.90;;;;;;5011463;28;20202;-70
2021/12/12 06:18:39;;;;;;;20.63;14.03;;;0.40;99.90;;;;;;5011209;28;20228;-70
2021/12/12 06:21:06;;;;;;;19.80;13.93;;;0.40;99.90;;;;;;5011060;28;20648;-70
2021/12/12 06:23:33;;;;;;;17.60;13.30;;;0.40;99.90;;;;;;5011150;28;20206;-70
2021/12/12 06:25:59;;;;;;;19.27;13.97;;;0.40;99.90;;;;;;5011049;28;20269;-70
2021/12/12 06:28:31;;;;;;;18.53;12.77;;;0.40;99.90;;;;;;5011113;28;20620;-70
2021/12/12 06:30:59;;;;;;;19.63;13.30;;;0.40;99.90;;;;;;5010912;28;20643;-70
2021/12/12 06:33:26;;;;;;;18.07;12.70;;;0.40;99.90;;;;;;5010937;28;20230;-70
2021/12/12 06:35:53;;;;;;;16.93;12.97;;;0.40;99.90;;;;;;5010786;28;20225;-70
2021/12/12 06:38:21;;;;;;;16.10;13.07;;;0.40;99.90;;;;;;5010907;28;20209;-70
2021/12/12 06:40:49;;;;;;;18.53;13.87;;;0.40;99.90;;;;;;5010600;28;20244;-70
2021/12/12 06:43:18;;;;;;;15.73;13.00;;;0.30;99.90;;;;;;5010607;28;20205;-70
2021/12/12 06:45:47;;;;;;;18.33;13.00;;;0.30;99.90;;;;;;5010641;28;20252;-70
2021/12/12 06:48:19;;;;;;;19.83;12.90;;;0.30;99.90;;;;;;5010684;28;20221;-70
2021/12/12 06:50:49;;;;;;;19.17;13.77;;;0.30;99.90;;;;;;5010496;28;20193;-70
2021/12/12 06:53:19;;;;;;;19.13;13.73;;;0.30;99.90;;;;;;5010186;28;20237;-70
2021/12/12 06:55:47;;;;;;;17.90;13.90;;;0.30;99.90;;;;;;5010469;28;20208;-70
2021/12/12 06:58:15;;;;;;;16.63;12.73;;;0.30;99.90;;;;;;5010506;28;20206;-70
2021/12/12 07:00:44;;;;;;;19.77;12.83;;;0.30;99.90;;;;;;5010556;28;20209;-70
2021/12/12 07:03:13;;;;;;;16.73;13.27;;;0.30;99.90;;;;;;5010719;28;20214;-70
2021/12/12 07:05:40;;;;;;;17.73;13.10;;;0.30;99.90;;;;;;5010406;28;20233;-70
2021/12/12 07:08:07;;;;;;;16.47;13.03;;;0.30;99.90;;;;;;5010552;28;20236;-70
2021/12/12 07:10:35;;;;;;;14.73;12.33;;;0.30;99.90;;;;;;5010086;28;20259;-70
2021/12/12 07:13:02;;;;;;;19.00;12.93;;;0.30;99.90;;;;;;5010543;28;20213;-70
2021/12/12 07:15:31;;;;;;;17.43;12.93;;;0.30;99.90;;;;;;5009953;28;20231;-70
2021/12/12 07:18:00;;;;;;;18.50;13.53;;;0.30;99.90;;;;;;5010202;28;20209;-70
2021/12/12 07:20:28;;;;;;;18.43;13.57;;;0.40;99.90;;;;;;5010342;28;20238;-70
2021/12/12 07:22:55;;;;;;;20.20;13.60;;;0.40;99.90;;;;;;5010174;28;20623;-70
2021/12/12 07:25:22;;;;;;;17.70;13.53;;;0.40;99.90;;;;;;5010258;28;20263;-70
2021/12/12 07:27:51;;;;;;;16.60;12.50;;;0.30;99.90;;;;;;5009962;28;20287;-70
2021/12/12 07:30:19;;;;;;;19.07;13.23;;;0.40;99.90;;;;;;5009950;28;20233;-70
2021/12/12 07:32:46;;;;;;;20.17;13.10;;;0.40;99.90;;;;;;5009399;28;20225;-70
2021/12/12 07:35:14;;;;;;;18.80;13.43;;;0.40;99.90;;;;;;5010043;28;20201;-70
2021/12/12 07:37:43;;;;;;;17.57;12.90;;;0.40;99.90;;;;;;5009933;28;20275;-70
2021/12/12 07:40:11;;;;;;;19.33;13.27;;;0.40;99.90;;;;;;5009813;28;20612;-70
2021/12/12 07:42:37;;;;;;;20.50;13.83;;;0.40;99.90;;;;;;5009606;28;20212;-70
2021/12/12 07:45:06;;;;;;;20.20;14.23;;;0.40;99.90;;;;;;5009733;28;20212;-70
2021/12/12 07:47:34;;;;;;;22.87;14.30;;;0.40;99.90;;;;;;5009787;28;20268;-70
2021/12/12 07:50:03;;;;;;;18.10;13.10;;;0.40;99.90;;;;;;5009280;28;20626;-70
2021/12/12 07:52:30;;;;;;;18.77;13.67;;;0.40;99.90;;;;;;5009382;28;20256;-70
2021/12/12 07:54:59;;;;;;;20.63;13.63;;;0.40;99.90;;;;;;5009421;28;20216;-70
2021/12/12 07:57:28;;;;;;;17.77;13.57;;;0.50;99.90;;;;;;5009492;28;20721;-70
2021/12/12 07:59:55;;;;;;;19.80;13.87;;;0.50;99.90;;;;;;5009282;28;20217;-70
2021/12/12 08:02:24;;;;;;;20.17;13.53;;;0.50;99.90;;;;;;5009336;28;20786;-70
2021/12/12 08:04:52;;;;;;;18.57;13.20;;;0.50;99.90;;;;;;5008967;28;20672;-70
2021/12/12 08:07:21;;;;;;;18.40;13.37;;;0.50;99.90;;;;;;5009478;28;20321;-70
2021/12/12 08:09:48;;;;;;;19.33;13.37;;;0.50;99.90;;;;;;5009108;28;20611;-70
2021/12/12 08:12:20;;;;;;;20.43;13.70;;;0.50;99.90;;;;;;5009254;28;20864;-70
2021/12/12 08:14:49;;;;;;;21.30;13.73;;;0.50;99.90;;;;;;5009369;28;20193;-70
2021/12/12 08:17:16;;;;;;;18.27;13.80;;;0.50;99.90;;;;;;5009290;28;20218;-70
2021/12/12 08:19:43;;;;;;;19.10;13.50;;;0.50;99.90;;;;;;5008537;28;20282;-70
2021/12/12 08:22:12;;;;;;;22.83;15.00;;;0.50;99.90;;;;;;5009136;28;20209;-70
2021/12/12 08:24:40;;;;;;;19.30;14.43;;;0.50;99.90;;;;;;5008459;28;20628;-70
2021/12/12 08:27:08;;;;;;;21.70;14.37;;;0.60;99.90;;;;;;5008544;28;20283;-70
2021/12/12 08:29:37;;;;;;;19.63;14.13;;;0.60;99.90;;;;;;5008664;28;20731;-70
2021/12/12 08:32:05;;;;;;;17.90;14.33;;;0.60;99.90;;;;;;5009039;28;20322;-70
2021/12/12 08:34:32;;;;;;;23.73;14.83;;;0.70;99.90;;;;;;5008901;28;20202;-70
2021/12/12 08:37:00;;;;;;;19.57;14.33;;;0.70;99.90;;;;;;5008622;28;20213;-70
2021/12/12 08:39:27;;;;;;;21.67;15.07;;;0.70;99.90;;;;;;5008804;28;20212;-70
2021/12/12 08:41:55;;;;;;;21.73;14.07;;;0.70;99.90;;;;;;5008810;28;20244;-70
2021/12/12 08:44:23;;;;;;;22.20;14.70;;;0.70;99.90;;;;;;5008897;28;20212;-70
2021/12/12 08:46:53;;;;;;;22.13;14.37;;;0.70;99.90;;;;;;5008589;28;20279;-70
2021/12/12 08:49:23;;;;;;;20.70;14.20;;;0.80;99.90;;;;;;5008483;28;20652;-70
2021/12/12 08:51:54;;;;;;;20.83;14.43;;;0.80;99.90;;;;;;5008856;28;20237;-70
2021/12/12 08:54:26;;;;;;;19.30;13.70;;;0.80;99.90;;;;;;5008266;28;20300;-70
2021/12/12 08:57:02;;;;;;;23.33;15.10;;;0.80;99.90;;;;;;5008648;28;20204;-70
2021/12/12 08:59:29;;;;;;;19.93;14.43;;;0.80;99.90;;;;;;5008645;28;20291;-70
2021/12/12 09:02:00;;;;;;;21.00;15.00;;;0.80;99.90;;;;;;5008582;28;20213;-70
2021/12/12 09:04:29;;;;;;;22.73;15.07;;;0.80;99.90;;;;;;5008203;28;20240;-70
2021/12/12 09:06:59;;;;;;;22.97;15.20;;;0.80;99.90;;;;;;5008319;28;20310;-70
2021/12/12 09:09:30;;;;;;;20.30;15.10;;;0.80;99.90;;;;;;5008552;28;20204;-70
2021/12/12 09:12:02;;;;;;;23.73;15.23;;;0.80;99.90;;;;;;5008348;28;20209;-70
2021/12/12 09:14:34;;;;;;;21.30;15.43;;;0.80;99.90;;;;;;5008606;28;20193;-70
2021/12/12 09:17:06;;;;;;;23.17;15.77;;;0.80;99.90;;;;;;5008697;28;20201;-70
2021/12/12 09:19:41;;;;;;;22.80;15.40;;;0.80;99.90;;;;;;5008484;28;20202;-70
2021/12/12 09:22:10;;;;;;;24.03;15.63;;;0.80;99.90;;;;;;5008803;28;20192;-70
2021/12/12 09:24:45;;;;;;;23.20;16.07;;;0.80;99.90;;;;;;5007886;28;20217;-70
2021/12/12 09:27:17;;;;;;;20.43;15.13;;;0.80;99.90;;;;;;5007855;28;20238;-70
2021/12/12 09:29:51;;;;;;;22.03;15.10;;;0.80;99.90;;;;;;5008133;28;20221;-70
2021/12/12 09:32:27;;;;;;;23.47;17.03;;;0.90;99.90;;;;;;5007880;28;20387;-70
2021/12/12 09:34:59;;;;;;;24.90;18.03;;;0.90;99.90;;;;;;5007703;28;20619;-70
2021/12/12 09:37:32;;;;;;;22.97;15.53;;;0.90;99.90;;;;;;5009049;28;20543;-70
2021/12/12 09:40:03;;;;;;;23.53;15.63;;;0.90;99.90;;;;;;5011722;28;20714;-70
2021/12/12 09:42:47;;;;;;;21.47;14.97;;;1.00;99.90;;;;;;5012110;28;20240;-70
2021/12/12 09:45:49;;;;;;;21.37;15.00;;;1.00;99.90;;;;;;5012453;28;20220;-70
2021/12/12 09:51:50;;;;;;;22.43;15.40;;;1.00;99.90;;;;;;5011347;28;20236;-70
2021/12/12 09:54:26;;;;;;;21.43;14.67;;;1.00;99.90;;;;;;5011510;28;20245;-70
2021/12/12 09:57:01;;;;;;;22.77;16.20;;;1.10;99.90;;;;;;5011770;28;20197;-70
2021/12/12 09:59:40;;;;;;;25.37;16.13;;;1.10;99.90;;;;;;5011726;28;20244;-70
2021/12/12 10:02:15;;;;;;;26.80;16.43;;;1.10;99.90;;;;;;5011451;28;20645;-70
2021/12/12 10:04:56;;;;;;;21.53;15.27;;;1.20;99.90;;;;;;5011508;28;20248;-70
2021/12/12 10:07:35;;;;;;;20.80;15.00;;;1.20;99.90;;;;;;5011318;28;20291;-70
2021/12/12 10:10:06;;;;;;;24.67;16.37;;;1.10;99.90;;;;;;5011503;28;20281;-70
2021/12/12 10:12:39;;;;;;;23.63;16.37;;;1.20;99.90;;;;;;5011579;28;20193;-70
2021/12/12 10:15:11;;;;;;;23.27;15.60;;;1.20;99.90;;;;;;5011441;28;20718;-70
2021/12/12 10:17:44;;;;;;;22.97;15.97;;;1.20;99.90;;;;;;5011474;28;20229;-70
2021/12/12 10:20:14;;;;;;;24.93;16.33;;;1.20;99.90;;;;;;5011286;28;20721;-70
2021/12/12 10:22:57;;;;;;;21.43;15.60;;;1.30;99.90;;;;;;5011040;28;20229;-70
2021/12/12 10:25:31;;;;;;;23.10;16.47;;;1.30;99.90;;;;;;5011080;28;20252;-70
2021/12/12 10:28:02;;;;;;;22.20;14.77;;;1.30;99.90;;;;;;5010920;28;20229;-70
2021/12/12 10:30:32;;;;;;;21.53;15.77;;;1.30;99.90;;;;;;5011186;28;20197;-70
2021/12/12 10:33:10;;;;;;;22.10;15.40;;;1.30;99.90;;;;;;5011171;28;20499;-70
2021/12/12 10:35:41;;;;;;;23.83;15.60;;;1.40;99.90;;;;;;5010957;28;20221;-70
2021/12/12 10:38:16;;;;;;;20.57;15.53;;;1.40;99.90;;;;;;5011070;28;20201;-70
2021/12/12 10:40:49;;;;;;;23.40;15.77;;;1.40;99.90;;;;;;5010942;28;20546;-70
2021/12/12 10:43:24;;;;;;;23.83;16.30;;;1.50;99.90;;;;;;5011018;28;20624;-71
2021/12/12 10:45:57;;;;;;;23.77;16.40;;;1.50;99.90;;;;;;5010777;28;20228;-70
2021/12/12 10:48:31;;;;;;;23.50;16.00;;;1.60;99.90;;;;;;5010929;28;20234;-70
2021/12/12 10:51:05;;;;;;;22.13;16.27;;;1.60;99.90;;;;;;5010020;28;20228;-70
2021/12/12 10:53:40;;;;;;;22.87;14.97;;;1.60;99.90;;;;;;5010302;28;20596;-70
2021/12/12 10:56:14;;;;;;;21.87;15.23;;;1.60;99.90;;;;;;5010718;28;20197;-70
2021/12/12 10:58:46;;;;;;;23.70;14.83;;;1.70;99.90;;;;;;5010513;28;20200;-70
2021/12/12 11:01:18;;;;;;;20.57;15.17;;;1.70;99.90;;;;;;5010549;28;20660;-70
2021/12/12 11:03:53;;;;;;;21.67;15.57;;;1.70;99.90;;;;;;5010502;28;20271;-70
2021/12/12 11:06:26;;;;;;;22.80;15.63;;;1.70;99.90;;;;;;5010276;28;20229;-70
2021/12/12 11:09:00;;;;;;;23.07;16.43;;;1.70;99.90;;;;;;5010295;28;20255;-70
2021/12/12 11:11:32;;;;;;;19.17;14.23;;;1.70;99.90;;;;;;5010270;28;20202;-70
2021/12/12 11:14:07;;;;;;;23.63;15.33;;;1.70;99.90;;;;;;5010226;28;20205;-70
2021/12/12 11:16:38;;;;;;;25.03;15.80;;;1.70;99.90;;;;;;5010262;28;20197;-70
2021/12/12 11:19:13;;;;;;;23.93;16.23;;;1.70;99.90;;;;;;5010390;28;20201;-70
2021/12/12 11:21:44;;;;;;;22.20;16.07;;;1.70;99.90;;;;;;5010006;28;20228;-70
2021/12/12 11:24:19;;;;;;;24.13;15.33;;;1.70;99.90;;;;;;5010082;28;20264;-70
2021/12/12 11:26:52;;;;;;;24.80;15.93;;;1.70;99.90;;;;;;5010151;28;20207;-70
2021/12/12 11:29:27;;;;;;;21.33;15.20;;;1.70;99.90;;;;;;5010015;28;20233;-70
2021/12/12 11:31:58;;;;;;;23.80;15.37;;;1.70;99.90;;;;;;5009847;28;20283;-70
2021/12/12 11:34:27;;;;;;;24.03;15.03;;;1.80;99.90;;;;;;5010058;28;20251;-70
2021/12/12 11:37:12;;;;;;;22.43;16.43;;;1.70;99.90;;;;;;5009994;28;20629;-70
2021/12/12 11:39:47;;;;;;;23.43;15.73;;;1.70;99.90;;;;;;5009181;28;20703;-70
2021/12/12 11:42:21;;;;;;;21.83;15.13;;;1.70;99.90;;;;;;5009873;28;20197;-70
2021/12/12 11:45:00;;;;;;;27.53;16.23;;;1.70;99.90;;;;;;5009365;28;20190;-70
2021/12/12 11:47:37;;;;;;;23.47;15.50;;;1.70;99.90;;;;;;5009579;28;20653;-70
2021/12/12 11:50:08;;;;;;;24.03;16.07;;;1.70;99.90;;;;;;5009444;28;20221;-70
2021/12/12 11:52:44;;;;;;;22.83;15.63;;;1.70;99.90;;;;;;5009412;28;20646;-70
2021/12/12 11:55:19;;;;;;;23.17;14.47;;;1.70;99.90;;;;;;5009406;28;20212;-70
2021/12/12 11:57:56;;;;;;;24.43;16.47;;;1.70;99.90;;;;;;5009412;28;20205;-70
2021/12/12 12:00:31;;;;;;;21.70;14.63;;;1.70;99.90;;;;;;5009265;28;20244;-70
2021/12/12 12:03:16;;;;;;;22.00;15.33;;;1.80;99.90;;;;;;5009378;28;20194;-70
2021/12/12 12:05:48;;;;;;;23.27;15.73;;;1.70;99.90;;;;;;5009423;28;20288;-70
2021/12/12 12:08:23;;;;;;;24.93;15.97;;;1.80;99.90;;;;;;5009007;28;20221;-70
2021/12/12 12:11:19;;;;;;;22.57;15.50;;;1.70;99.90;;;;;;5009129;28;20193;-70
2021/12/12 12:13:54;;;;;;;22.80;15.80;;;1.70;99.90;;;;;;5008832;28;20668;-70
2021/12/12 12:16:47;;;;;;;22.87;15.17;;;1.70;99.90;;;;;;5009310;28;20225;-70
2021/12/12 12:19:25;;;;;;;22.90;14.93;;;1.80;99.90;;;;;;5009231;28;20228;-70
2021/12/12 12:22:05;;;;;;;24.33;16.00;;;1.80;99.90;;;;;;5009032;28;20237;-70
2021/12/12 12:24:41;;;;;;;26.97;16.37;;;1.80;99.90;;;;;;5009235;28;20244;-70
2021/12/12 12:27:12;;;;;;;23.27;14.93;;;1.80;99.90;;;;;;5009168;28;20229;-70
2021/12/12 12:30:16;;;;;;;23.63;15.20;;;1.80;99.90;;;;;;5008937;28;20283;-70
2021/12/12 12:33:21;;;;;;;21.57;14.77;;;1.90;99.90;;;;;;5008724;28;20226;-70
2021/12/12 12:36:24;;;;;;;22.83;15.20;;;1.90;99.90;;;;;;5008482;28;20214;-70
2021/12/12 12:39:24;;;;;;;23.97;15.20;;;1.90;99.90;;;;;;5008502;28;20244;-70
2021/12/12 12:42:21;;;;;;;23.57;14.30;;;1.90;99.90;;;;;;5008566;28;20252;-70
2021/12/12 12:45:25;;;;;;;22.00;13.97;;;1.90;99.90;;;;;;5007887;28;20208;-70
2021/12/12 12:48:34;;;;;;;21.07;14.47;;;1.90;99.90;;;;;;5008362;28;20232;-70
2021/12/12 12:51:18;;;;;;;24.23;15.03;;;1.90;99.90;;;;;;5008703;28;20230;-70
2021/12/12 12:54:27;;;;;;;22.17;13.93;;;2.00;99.90;;;;;;5008574;28;20245;-70
2021/12/12 12:57:23;;;;;;;23.50;14.10;;;1.90;99.90;;;;;;5008550;28;20197;-70
2021/12/12 13:00:06;;;;;;;19.23;13.77;;;1.90;99.90;;;;;;5008378;28;20236;-70
2021/12/12 13:03:03;;;;;;;20.67;13.83;;;2.00;99.90;;;;;;5008597;28;20189;-69
2021/12/12 13:06:07;;;;;;;23.03;14.80;;;1.90;99.90;;;;;;5008355;28;20197;-70
2021/12/12 13:09:11;;;;;;;22.07;13.57;;;1.90;99.90;;;;;;4999881;28;20237;-70
2021/12/12 13:11:45;;;;;;;19.43;13.53;;;2.00;99.90;;;;;;5008032;28;20193;-70
2021/12/12 13:14:22;;;;;;;19.87;13.57;;;2.00;99.90;;;;;;5008335;28;20189;-70
2021/12/12 13:16:55;;;;;;;22.70;13.30;;;2.00;99.90;;;;;;5007355;28;20205;-70